createdAt,value
2019-05-20T00:01:40.265Z,24.47
2019-05-20T00:04:14.786Z,27.03
2019-05-20T00:06:46.669Z,29.43
2019-05-20T00:09:52.913Z,23.03
2019-05-20T00:12:23.697Z,28.37
2019-05-20T00:14:54.508Z,29.37
2019-05-20T00:17:24.547Z,28.30
2019-05-20T00:20:01.619Z,26.87
2019-05-20T00:22:37.164Z,27.87
2019-05-20T00:25:25.481Z,29.00
2019-05-20T00:28:04.219Z,27.77
2019-05-20T00:30:40.015Z,24.17
2019-05-20T00:33:09.605Z,27.02
2019-05-20T00:35:39.654Z,30.72
2019-05-20T00:38:12.907Z,22.57
2019-05-20T00:40:48.251Z,24.53
2019-05-20T00:43:49.908Z,25.97
2019-05-20T00:46:25.547Z,20.30
2019-05-20T00:48:57.875Z,26.63
2019-05-20T00:51:27.760Z,22.60
2019-05-20T00:53:58.718Z,26.40
2019-05-20T00:56:29.323Z,24.43
2019-05-20T00:59:01.739Z,25.60
2019-05-20T01:01:31.575Z,27.63
2019-05-20T01:04:05.191Z,27.57
2019-05-20T01:06:36.677Z,28.10
2019-05-20T01:09:10.218Z,30.60
2019-05-20T01:11:45.093Z,29.33
2019-05-20T01:14:15.713Z,29.47
2019-05-20T01:16:48.432Z,28.53
2019-05-20T01:19:18.164Z,29.83
2019-05-20T01:21:48.219Z,29.13
2019-05-20T01:24:18.002Z,26.50
2019-05-20T01:26:48.402Z,27.03
2019-05-20T01:29:18.551Z,30.67
2019-05-20T01:31:48.460Z,30.47
2019-05-20T01:34:18.298Z,28.97
2019-05-20T01:36:47.786Z,30.03
2019-05-20T01:39:17.686Z,27.90
2019-05-20T01:41:47.347Z,31.70
2019-05-20T01:44:19.861Z,29.40
2019-05-20T01:46:57.843Z,27.47
2019-05-20T01:49:34.311Z,26.57
2019-05-20T01:52:06.724Z,29.63
2019-05-20T01:54:37.206Z,30.43
2019-05-20T01:57:09.276Z,25.80
2019-05-20T01:59:39.940Z,25.90
2019-05-20T02:02:09.895Z,29.10
2019-05-20T02:04:43.029Z,26.53
2019-05-20T02:07:16.937Z,30.43
2019-05-20T02:09:47.598Z,26.70
2019-05-20T02:12:17.443Z,25.90
2019-05-20T02:14:52.395Z,26.80
2019-05-20T02:17:23.793Z,26.33
2019-05-20T02:19:53.910Z,24.97
2019-05-20T02:22:23.769Z,27.47
2019-05-20T02:24:53.165Z,21.27
2019-05-20T02:27:31.148Z,25.77
2019-05-20T02:29:59.956Z,26.73
2019-05-20T02:32:48.652Z,24.97
2019-05-20T02:35:23.324Z,24.50
2019-05-20T02:37:53.178Z,28.57
2019-05-20T02:40:28.136Z,27.27
2019-05-20T02:42:58.560Z,29.63
2019-05-20T02:45:28.158Z,27.33
2019-05-20T02:47:57.623Z,30.37
2019-05-20T02:50:28.508Z,28.07
2019-05-20T02:53:00.220Z,26.33
2019-05-20T02:55:30.278Z,26.17
2019-05-20T02:58:04.475Z,26.53
2019-05-20T03:02:09.582Z,26.70
2019-05-20T03:04:12.872Z,26.20
2019-05-20T03:06:51.957Z,30.30
2019-05-20T03:09:24.806Z,31.47
2019-05-20T03:11:59.918Z,28.03
2019-05-20T03:14:33.026Z,27.93
2019-05-20T03:17:25.601Z,27.37
2019-05-20T03:20:08.658Z,23.97
2019-05-20T03:22:38.526Z,23.00
2019-05-20T03:25:08.680Z,22.37
2019-05-20T03:27:40.905Z,23.47
2019-05-20T03:30:12.237Z,24.70
2019-05-20T03:32:48.926Z,22.87
2019-05-20T03:35:18.775Z,25.53
2019-05-20T03:37:55.013Z,24.93
2019-05-20T03:40:24.855Z,26.07
2019-05-20T03:42:55.213Z,24.37
2019-05-20T03:45:26.677Z,19.93
2019-05-20T03:47:58.814Z,18.73
2019-05-20T03:50:28.431Z,20.97
2019-05-20T03:52:59.199Z,18.50
2019-05-20T03:55:31.756Z,19.90
2019-05-20T03:58:07.914Z,20.70
2019-05-20T04:00:48.409Z,19.43
2019-05-20T04:03:17.954Z,17.17
2019-05-20T04:05:51.772Z,22.30
2019-05-20T04:08:21.748Z,17.73
2019-05-20T04:10:51.472Z,20.13
2019-05-20T04:13:21.101Z,21.03
2019-05-20T04:15:51.571Z,21.07
2019-05-20T04:18:21.310Z,21.03
2019-05-20T04:20:51.800Z,21.83
2019-05-20T04:23:23.245Z,24.23
2019-05-20T04:25:53.642Z,23.90
2019-05-20T04:28:23.279Z,29.27
2019-05-20T04:30:55.574Z,27.47
2019-05-20T04:33:25.823Z,28.37
2019-05-20T04:35:57.267Z,33.03
2019-05-20T04:38:26.930Z,29.00
2019-05-20T04:41:02.595Z,35.23
2019-05-20T04:43:32.413Z,30.87
2019-05-20T04:46:01.925Z,30.20
2019-05-20T04:48:31.876Z,32.10
2019-05-20T04:51:05.596Z,31.57
2019-05-20T04:53:38.028Z,37.67
2019-05-20T04:56:07.703Z,37.23
2019-05-20T04:58:38.503Z,34.73
2019-05-20T05:01:15.791Z,33.60
2019-05-20T05:03:46.370Z,32.37
2019-05-20T05:06:16.130Z,31.13
2019-05-20T05:08:46.755Z,37.93
2019-05-20T05:11:19.415Z,34.80
2019-05-20T05:13:51.711Z,33.17
2019-05-20T05:16:21.310Z,31.97
2019-05-20T05:18:52.869Z,31.63
2019-05-20T05:21:22.455Z,30.23
2019-05-20T05:23:59.829Z,29.63
2019-05-20T05:26:35.298Z,34.57
2019-05-20T05:29:15.227Z,28.00
2019-05-20T05:31:47.259Z,24.73
2019-05-20T05:34:17.859Z,30.83
2019-05-20T05:36:47.424Z,27.60
2019-05-20T05:39:17.554Z,30.97
2019-05-20T05:41:49.811Z,24.97
2019-05-20T05:44:21.717Z,20.40
2019-05-20T05:46:51.847Z,24.57
2019-05-20T05:49:22.686Z,26.93
2019-05-20T05:51:52.516Z,21.63
2019-05-20T05:54:23.472Z,20.97
2019-05-20T05:56:54.107Z,21.97
2019-05-20T05:59:23.961Z,26.07
2019-05-20T06:01:53.550Z,23.10
2019-05-20T06:04:23.366Z,21.93
2019-05-20T06:06:53.054Z,20.53
2019-05-20T06:09:22.619Z,19.40
2019-05-20T06:12:00.985Z,19.97
2019-05-20T06:14:30.525Z,24.77
2019-05-20T06:16:59.902Z,23.00
2019-05-20T06:19:49.399Z,17.77
2019-05-20T06:22:25.212Z,20.83
2019-05-20T06:24:56.176Z,13.47
2019-05-20T06:27:25.558Z,15.20
2019-05-20T06:29:55.581Z,16.10
2019-05-20T06:32:25.327Z,15.20
2019-05-20T06:34:54.947Z,18.00
2019-05-20T06:37:58.556Z,12.83
2019-05-20T06:40:35.524Z,16.27
2019-05-20T06:43:06.144Z,14.90
2019-05-20T06:45:41.108Z,14.10
2019-05-20T06:48:10.939Z,12.33
2019-05-20T06:50:43.338Z,11.30
2019-05-20T06:53:13.164Z,12.60
2019-05-20T06:55:42.839Z,11.63
2019-05-20T06:58:12.511Z,14.03
2019-05-20T07:00:42.308Z,12.40
2019-05-20T07:03:11.807Z,14.37
2019-05-20T07:05:41.454Z,12.77
2019-05-20T07:08:10.886Z,14.10
2019-05-20T07:10:40.370Z,14.73
2019-05-20T07:13:09.935Z,13.63
2019-05-20T07:15:42.132Z,13.07
2019-05-20T07:18:11.783Z,14.17
2019-05-20T07:20:41.326Z,17.30
2019-05-20T07:23:10.757Z,15.10
2019-05-20T07:25:46.190Z,14.90
2019-05-20T07:28:15.716Z,10.93
2019-05-20T07:30:45.459Z,13.37
2019-05-20T07:33:14.903Z,14.97
2019-05-20T07:35:44.709Z,11.80
2019-05-20T07:38:17.516Z,11.60
2019-05-20T07:40:47.411Z,15.03
2019-05-20T07:43:23.585Z,19.20
2019-05-20T07:45:55.662Z,10.60
2019-05-20T07:48:31.174Z,16.30
2019-05-20T07:51:02.905Z,13.80
2019-05-20T07:53:36.886Z,11.60
2019-05-20T07:56:13.948Z,14.87
2019-05-20T07:58:50.157Z,12.97
2019-05-20T08:01:25.884Z,11.13
2019-05-20T08:04:05.928Z,11.73
2019-05-20T08:06:36.698Z,9.27
2019-05-20T08:09:07.846Z,11.47
2019-05-20T08:11:37.989Z,11.57
2019-05-20T08:14:15.429Z,10.43
2019-05-20T08:16:47.375Z,10.33
2019-05-20T08:19:19.284Z,13.57
2019-05-20T08:21:49.350Z,10.90
2019-05-20T08:24:22.020Z,12.23
2019-05-20T08:26:54.888Z,10.87
2019-05-20T08:29:27.698Z,13.07
2019-05-20T08:31:57.161Z,14.83
2019-05-20T08:34:26.570Z,12.47
2019-05-20T08:37:07.242Z,13.40
2019-05-20T08:39:42.567Z,13.03
2019-05-20T08:42:19.122Z,13.90
2019-05-20T08:44:48.623Z,16.53
2019-05-20T08:47:19.707Z,14.40
2019-05-20T08:49:50.036Z,18.40
2019-05-20T08:52:20.438Z,15.40
2019-05-20T08:54:52.231Z,15.20
2019-05-20T08:57:22.221Z,13.07
2019-05-20T08:59:54.823Z,14.10
2019-05-20T09:02:24.640Z,12.97
2019-05-20T09:04:57.206Z,13.10
2019-05-20T09:07:29.939Z,12.97
2019-05-20T09:10:03.009Z,13.73
2019-05-20T09:12:35.027Z,12.00
2019-05-20T09:15:04.839Z,17.77
2019-05-20T09:17:38.810Z,11.23
2019-05-20T09:20:10.618Z,10.77
2019-05-20T09:22:42.723Z,9.03
2019-05-20T09:25:12.579Z,10.23
2019-05-20T09:27:42.982Z,9.43
2019-05-20T09:30:13.317Z,9.30
2019-05-20T09:32:49.886Z,10.40
2019-05-20T09:35:22.363Z,11.77
2019-05-20T09:37:52.419Z,9.53
2019-05-20T09:40:37.469Z,11.13
2019-05-20T09:43:19.538Z,13.00
2019-05-20T09:46:07.503Z,11.53
2019-05-20T09:48:34.584Z,11.03
2019-05-20T09:51:09.462Z,11.23
2019-05-20T09:53:48.303Z,10.57
2019-05-20T09:56:18.761Z,10.90
2019-05-20T09:58:49.085Z,9.87
2019-05-20T10:01:20.287Z,11.57
2019-05-20T10:03:54.341Z,11.50
2019-05-20T10:06:37.139Z,13.50
2019-05-20T10:09:10.858Z,12.73
2019-05-20T10:11:40.405Z,15.70
2019-05-20T10:14:12.877Z,12.90
2019-05-20T10:16:42.466Z,15.20
2019-05-20T10:19:22.050Z,15.33
2019-05-20T10:21:52.522Z,16.57
2019-05-20T10:24:25.307Z,14.37
2019-05-20T10:27:05.154Z,16.77
2019-05-20T10:29:35.954Z,14.33
2019-05-20T10:32:05.967Z,19.23
2019-05-20T10:34:37.439Z,18.63
2019-05-20T10:37:19.976Z,20.20
2019-05-20T10:39:57.280Z,17.37
2019-05-20T10:42:30.922Z,20.50
2019-05-20T10:45:11.349Z,21.33
2019-05-20T10:47:42.916Z,17.70
2019-05-20T10:50:12.580Z,22.87
2019-05-20T10:53:01.378Z,18.27
2019-05-20T10:55:32.469Z,17.27
2019-05-20T10:58:08.513Z,19.00
2019-05-20T11:00:38.734Z,17.50
2019-05-20T11:03:08.620Z,22.90
2019-05-20T11:05:40.214Z,19.60
2019-05-20T11:08:56.404Z,20.10
2019-05-20T11:11:31.994Z,19.93
2019-05-20T11:14:01.937Z,20.90
2019-05-20T11:16:31.569Z,22.50
2019-05-20T11:19:01.349Z,20.17
2019-05-20T11:21:33.872Z,18.97
2019-05-20T11:24:03.367Z,20.63
2019-05-20T11:26:37.232Z,20.33
2019-05-20T11:29:06.899Z,19.80
2019-05-20T11:31:38.043Z,21.63
2019-05-20T11:34:08.520Z,23.03
2019-05-20T11:36:45.155Z,25.77
2019-05-20T11:39:33.169Z,19.63
2019-05-20T11:42:06.139Z,17.73
2019-05-20T11:44:36.430Z,20.00
2019-05-20T11:47:07.382Z,19.50
2019-05-20T11:49:37.125Z,22.33
2019-05-20T11:52:06.927Z,25.53
2019-05-20T11:54:36.833Z,23.93
2019-05-20T11:57:07.545Z,24.97
2019-05-20T11:59:37.045Z,20.93
2019-05-20T12:02:07.675Z,25.07
2019-05-20T12:04:37.084Z,30.70
2019-05-20T12:07:13.993Z,27.03
2019-05-20T12:10:00.828Z,24.60
2019-05-20T12:12:57.655Z,25.60
2019-05-20T12:15:27.182Z,24.73
2019-05-20T12:18:10.666Z,26.43
2019-05-20T12:20:40.651Z,24.30
2019-05-20T12:23:10.258Z,23.83
2019-05-20T12:25:41.251Z,29.73
2019-05-20T12:28:25.350Z,24.73
2019-05-20T12:31:07.077Z,28.07
2019-05-20T12:34:11.380Z,26.63
2019-05-20T12:37:03.709Z,35.00
2019-05-20T12:39:33.432Z,28.63
2019-05-20T12:42:03.133Z,25.97
2019-05-20T12:44:33.131Z,32.77
2019-05-20T12:47:02.947Z,26.43
2019-05-20T12:49:33.547Z,25.83
2019-05-20T12:52:10.576Z,25.97
2019-05-20T12:54:40.271Z,25.33
2019-05-20T12:57:29.463Z,26.90
2019-05-20T13:00:01.092Z,25.40
2019-05-20T13:02:36.333Z,34.97
2019-05-20T13:05:09.316Z,31.37
2019-05-20T13:07:40.447Z,35.70
2019-05-20T13:10:28.161Z,29.20
2019-05-20T13:12:42.462Z,30.20
2019-05-20T13:15:12.717Z,29.67
2019-05-20T13:17:45.787Z,29.40
2019-05-20T13:20:19.149Z,32.90
2019-05-20T13:22:48.448Z,27.57
2019-05-20T13:25:20.287Z,24.63
2019-05-20T13:27:51.066Z,23.33
2019-05-20T13:30:25.884Z,24.87
2019-05-20T13:32:55.286Z,28.63
2019-05-20T13:35:24.947Z,25.23
2019-05-20T13:37:54.666Z,27.87
2019-05-20T13:40:24.256Z,41.63
2019-05-20T13:42:53.971Z,36.00
2019-05-20T13:45:23.571Z,46.90
2019-05-20T13:47:53.451Z,33.50
2019-05-20T13:50:24.915Z,33.13
2019-05-20T13:52:55.148Z,38.17
2019-05-20T13:55:24.983Z,36.67
2019-05-20T13:57:54.515Z,36.33
2019-05-20T14:00:24.170Z,36.50
2019-05-20T14:02:59.614Z,40.17
2019-05-20T14:05:33.376Z,45.27
2019-05-20T14:08:05.551Z,49.97
2019-05-20T14:10:37.750Z,57.13
2019-05-20T14:13:07.450Z,60.23
2019-05-20T14:15:36.858Z,56.63
2019-05-20T14:18:06.255Z,59.83
2019-05-20T14:20:37.546Z,54.60
2019-05-20T14:23:08.180Z,49.80
2019-05-20T14:25:59.468Z,47.73
2019-05-20T14:28:53.840Z,53.80
2019-05-20T14:31:36.025Z,46.80
2019-05-20T14:34:07.420Z,45.83
2019-05-20T14:36:39.829Z,53.77
2019-05-20T14:39:08.396Z,51.30
2019-05-20T14:41:51.733Z,46.13
2019-05-20T14:44:21.205Z,48.67
2019-05-20T14:46:54.603Z,53.70
2019-05-20T14:49:32.573Z,44.37
2019-05-20T14:52:05.213Z,46.73
2019-05-20T14:54:39.922Z,43.53
2019-05-20T14:57:09.459Z,41.77
2019-05-20T14:59:43.576Z,41.27
2019-05-20T15:02:16.091Z,35.77
2019-05-20T15:04:49.870Z,37.00
2019-05-20T15:07:30.239Z,35.60
2019-05-20T15:09:53.284Z,33.40
2019-05-20T15:12:22.711Z,28.33
2019-05-20T15:14:52.170Z,28.30
2019-05-20T15:17:28.135Z,28.00
2019-05-20T15:19:57.653Z,23.13
2019-05-20T15:22:50.900Z,25.33
2019-05-20T15:25:20.607Z,18.23
2019-05-20T15:28:00.452Z,21.03
2019-05-20T15:30:35.770Z,18.23
2019-05-20T15:33:09.008Z,20.23
2019-05-20T15:35:52.226Z,25.67
2019-05-20T15:38:21.756Z,24.57
2019-05-20T15:40:52.790Z,20.00
2019-05-20T15:43:23.381Z,17.47
2019-05-20T15:46:12.320Z,13.47
2019-05-20T15:48:47.395Z,18.63
2019-05-20T15:51:23.149Z,16.57
2019-05-20T15:53:52.610Z,15.63
2019-05-20T15:56:22.100Z,16.13
2019-05-20T15:59:00.873Z,25.93
2019-05-20T16:01:39.909Z,21.23
2019-05-20T16:04:12.990Z,24.57
2019-05-20T16:06:45.979Z,21.20
2019-05-20T16:09:17.281Z,24.73
2019-05-20T16:11:47.629Z,19.73
2019-05-20T16:14:18.307Z,18.83
2019-05-20T16:16:48.015Z,22.50
2019-05-20T16:19:17.699Z,21.27
2019-05-20T16:21:51.936Z,21.83
2019-05-20T16:24:21.454Z,19.97
2019-05-20T16:26:53.839Z,22.67
2019-05-20T16:29:24.312Z,20.50
2019-05-20T16:32:08.199Z,25.07
2019-05-20T16:34:37.637Z,23.77
2019-05-20T16:37:08.474Z,29.60
2019-05-20T16:39:38.065Z,26.57
2019-05-20T16:42:08.069Z,27.00
2019-05-20T16:44:37.719Z,27.10
2019-05-20T16:47:07.460Z,27.17
2019-05-20T16:49:37.524Z,21.77
2019-05-20T16:52:07.144Z,26.07
2019-05-20T16:54:41.438Z,22.03
2019-05-20T16:57:14.006Z,18.43
2019-05-20T16:59:52.213Z,18.03
2019-05-20T17:02:24.383Z,16.93
2019-05-20T17:04:54.156Z,16.90
2019-05-20T17:07:23.661Z,18.47
2019-05-20T17:09:55.862Z,23.73
2019-05-20T17:12:26.528Z,19.10
2019-05-20T17:14:57.583Z,28.37
2019-05-20T17:17:27.214Z,23.90
2019-05-20T17:19:57.730Z,25.10
2019-05-20T17:22:27.133Z,22.27
2019-05-20T17:25:22.340Z,21.50
2019-05-20T17:27:48.057Z,15.40
2019-05-20T17:30:20.454Z,20.70
2019-05-20T17:33:03.021Z,24.87
2019-05-20T17:35:23.571Z,22.47
2019-05-20T17:37:55.275Z,20.40
2019-05-20T17:40:25.319Z,17.85
2019-05-20T17:42:54.948Z,19.43
2019-05-20T17:45:24.615Z,18.17
2019-05-20T17:48:04.210Z,18.93
2019-05-20T17:50:43.678Z,16.70
2019-05-20T17:53:20.797Z,14.37
2019-05-20T17:55:53.575Z,13.87
2019-05-20T17:58:23.246Z,14.93
2019-05-20T18:00:52.933Z,20.30
2019-05-20T18:03:24.050Z,22.27
2019-05-20T18:05:56.464Z,15.17
2019-05-20T18:08:42.658Z,22.90
2019-05-20T18:11:14.747Z,21.93
2019-05-20T18:13:44.381Z,18.60
2019-05-20T18:16:13.763Z,20.77
2019-05-20T18:18:48.465Z,28.77
2019-05-20T18:21:19.353Z,29.13
2019-05-20T18:23:57.239Z,25.47
2019-05-20T18:26:33.370Z,23.57
2019-05-20T18:30:12.656Z,24.90
2019-05-20T18:33:15.459Z,20.07
2019-05-20T18:35:18.836Z,20.27
2019-05-20T18:38:18.940Z,23.27
2019-05-20T18:40:58.478Z,22.40
2019-05-20T18:43:59.283Z,22.90
2019-05-20T18:50:06.606Z,20.00
2019-05-20T18:52:57.427Z,23.07
2019-05-20T18:55:29.397Z,22.43
2019-05-20T18:57:58.873Z,28.40
2019-05-20T19:00:34.072Z,24.57
2019-05-20T19:03:32.732Z,30.47
2019-05-20T19:06:14.317Z,33.17
2019-05-20T19:08:54.293Z,27.60
2019-05-20T19:11:23.913Z,28.37
2019-05-20T19:14:56.751Z,32.00
2019-05-20T19:16:53.479Z,36.90
2019-05-20T19:19:27.482Z,37.77
2019-05-20T19:21:59.005Z,31.00
2019-05-20T19:24:40.308Z,27.70
2019-05-20T19:27:27.215Z,33.80
2019-05-20T19:30:20.679Z,35.10
2019-05-20T19:33:27.192Z,36.03
2019-05-20T19:36:03.603Z,48.93
2019-05-20T19:38:35.933Z,42.60
2019-05-20T19:41:26.036Z,38.93
2019-05-20T19:44:01.754Z,38.60
2019-05-20T19:46:52.712Z,37.63
2019-05-20T19:49:23.134Z,33.37
2019-05-20T19:51:59.003Z,36.80
2019-05-20T19:54:28.723Z,35.40
2019-05-20T19:57:12.511Z,37.83
2019-05-20T19:59:41.046Z,30.33
2019-05-20T20:02:19.567Z,43.77
2019-05-20T20:04:58.509Z,39.87
2019-05-20T20:07:44.724Z,39.83
2019-05-20T20:10:38.223Z,37.30
2019-05-20T20:13:12.202Z,44.83
2019-05-20T20:16:06.224Z,41.13
2019-05-20T20:18:38.572Z,40.13
2019-05-20T20:21:11.498Z,45.63
2019-05-20T20:24:14.693Z,47.43
2019-05-20T20:26:48.498Z,43.90
2019-05-20T20:29:18.007Z,38.20
2019-05-20T20:31:52.525Z,43.90
2019-05-20T20:34:25.216Z,45.63
2019-05-20T20:36:54.801Z,49.43
2019-05-20T20:39:24.246Z,44.03
2019-05-20T20:41:56.603Z,43.53
2019-05-20T20:44:36.743Z,47.43
2019-05-20T20:47:06.377Z,46.03
2019-05-20T20:52:51.135Z,40.60
2019-05-20T20:55:24.387Z,39.00
2019-05-20T20:58:24.060Z,46.37
2019-05-20T21:00:44.169Z,40.90
2019-05-20T21:03:22.355Z,48.03
2019-05-20T21:05:55.851Z,39.03
2019-05-20T21:08:34.931Z,42.30
2019-05-20T21:11:04.642Z,46.13
2019-05-20T21:13:36.048Z,40.00
2019-05-20T21:16:05.603Z,46.20
2019-05-20T21:18:37.532Z,49.43
2019-05-20T21:21:07.235Z,39.07
2019-05-20T21:23:38.077Z,42.30
2019-05-20T21:26:07.977Z,38.53
2019-05-20T21:28:43.167Z,52.00
2019-05-20T21:31:14.063Z,43.13
2019-05-20T21:33:46.157Z,42.23
2019-05-20T21:36:18.376Z,41.93
2019-05-20T21:38:52.259Z,40.30
2019-05-20T21:41:27.379Z,42.03
2019-05-20T21:44:07.302Z,36.80
2019-05-20T21:46:58.635Z,41.63
2019-05-20T21:49:28.410Z,38.73
2019-05-20T21:52:00.808Z,39.20
2019-05-20T21:54:34.219Z,34.57
2019-05-20T21:57:10.404Z,34.57
2019-05-20T21:59:40.112Z,38.90
2019-05-20T22:02:30.812Z,37.17
2019-05-20T22:05:02.178Z,33.50
2019-05-20T22:07:33.379Z,32.20
2019-05-20T22:10:03.553Z,33.20
2019-05-20T22:12:33.244Z,33.07
2019-05-20T22:15:02.809Z,32.40
2019-05-20T22:17:35.159Z,32.07
2019-05-20T22:20:14.410Z,28.60
2019-05-20T22:23:05.966Z,30.03
2019-05-20T22:25:40.019Z,33.10
2019-05-20T22:28:12.746Z,30.57
2019-05-20T22:30:42.719Z,31.93
2019-05-20T22:33:12.577Z,31.20
2019-05-20T22:35:43.518Z,33.20
2019-05-20T22:38:14.928Z,30.93
2019-05-20T22:40:44.283Z,31.97
2019-05-20T22:43:17.954Z,27.53
2019-05-20T22:45:53.793Z,37.27
2019-05-20T22:48:24.049Z,27.07
2019-05-20T22:50:55.228Z,30.67
2019-05-20T22:53:37.663Z,25.97
2019-05-20T22:56:16.024Z,24.40
2019-05-20T22:58:46.237Z,22.53
2019-05-20T23:01:27.050Z,22.10
2019-05-20T23:06:49.502Z,22.47
2019-05-20T23:09:43.214Z,21.73
2019-05-20T23:12:19.938Z,20.90
2019-05-20T23:14:50.016Z,17.03
2019-05-20T23:17:46.359Z,17.83
2019-05-20T23:20:31.568Z,18.23
2019-05-20T23:23:14.478Z,15.00
2019-05-20T23:25:52.794Z,18.37
2019-05-20T23:28:25.965Z,15.83
2019-05-20T23:30:59.244Z,18.23
2019-05-20T23:33:31.664Z,22.00
2019-05-20T23:36:13.009Z,15.97
2019-05-20T23:38:42.531Z,14.83
2019-05-20T23:41:41.794Z,15.87
2019-05-20T23:44:25.717Z,16.57
2019-05-20T23:47:06.995Z,16.67
2019-05-20T23:49:38.386Z,16.17
2019-05-20T23:52:12.365Z,17.07
2019-05-20T23:57:29.726Z,19.07
